Time;durP1;ratioP1;P1;durP2;ratioP2;P2;SDS_P1;SDS_P2;PMS_P1;PMS_P2;Temp;Humidity;BMP_temperature;BMP_pressure;BME280_temperature;BME280_humidity;BME280_pressure;Samples;Min_cycle;Max_cycle;Signal;HPM_P1;HPM_P2
2023/09/19 00:01:35;;;;;;;2.65;1.15;;;15.10;99.90;;;;;;5027763;28;20047;-86
2023/09/19 00:04:01;;;;;;;3.25;1.20;;;15.20;99.90;;;;;;5057320;28;20052;-87
2023/09/19 00:06:31;;;;;;;1.30;1.20;;;15.00;99.90;;;;;;5049163;28;20049;-86
2023/09/19 00:09:00;;;;;;;1.65;0.90;;;14.90;99.90;;;;;;5025576;28;20040;-87
2023/09/19 00:11:26;;;;;;;2.17;1.10;;;14.90;99.90;;;;;;5050822;28;20060;-87
2023/09/19 00:13:52;;;;;;;1.85;0.90;;;14.90;99.90;;;;;;5047439;28;21521;-86
2023/09/19 00:16:19;;;;;;;2.03;0.93;;;14.90;99.90;;;;;;5037465;28;20037;-88
2023/09/19 00:18:45;;;;;;;3.00;1.17;;;14.90;99.90;;;;;;5013838;28;20051;-87
2023/09/19 00:21:11;;;;;;;5.43;1.30;;;14.80;99.90;;;;;;5049971;28;20040;-87
2023/09/19 00:23:37;;;;;;;1.90;1.13;;;14.80;99.90;;;;;;5045901;28;20508;-87
2023/09/19 00:26:03;;;;;;;3.78;1.17;;;14.80;99.90;;;;;;5024744;28;20044;-87
2023/09/19 00:28:29;;;;;;;1.52;1.10;;;14.70;99.90;;;;;;5046600;28;20071;-87
2023/09/19 00:30:55;;;;;;;3.30;1.27;;;14.70;99.90;;;;;;5060197;28;20048;-88
2023/09/19 00:33:22;;;;;;;3.63;1.20;;;14.70;99.90;;;;;;5048678;28;20051;-87
2023/09/19 00:35:47;;;;;;;1.95;1.13;;;14.60;99.90;;;;;;5060379;28;20067;-86
2023/09/19 00:38:15;;;;;;;2.92;1.20;;;14.60;99.90;;;;;;5081237;28;20082;-87
2023/09/19 00:40:44;;;;;;;2.08;1.10;;;14.50;99.90;;;;;;5063343;28;20068;-88
2023/09/19 00:43:10;;;;;;;2.17;1.13;;;14.50;99.90;;;;;;5069894;28;20047;-86
2023/09/19 00:45:38;;;;;;;3.33;1.50;;;14.50;99.90;;;;;;5051546;28;20101;-88
2023/09/19 00:48:06;;;;;;;3.33;1.30;;;14.50;99.90;;;;;;5062396;28;20127;-88
2023/09/19 00:50:32;;;;;;;2.20;1.30;;;14.40;99.90;;;;;;5060345;28;20057;-87
2023/09/19 00:52:59;;;;;;;3.78;1.30;;;14.40;99.90;;;;;;5081154;28;20541;-87
2023/09/19 00:55:26;;;;;;;2.20;1.10;;;14.40;99.90;;;;;;5077503;28;20044;-87
2023/09/19 00:57:52;;;;;;;3.08;1.30;;;14.40;99.90;;;;;;5070079;28;20047;-87
2023/09/19 01:00:19;;;;;;;1.88;1.05;;;14.40;99.90;;;;;;5082639;28;20123;-87
2023/09/19 01:02:46;;;;;;;3.50;1.30;;;14.40;99.90;;;;;;5034882;28;20044;-87
2023/09/19 01:05:15;;;;;;;2.35;1.17;;;14.40;99.90;;;;;;5065316;28;20497;-87
2023/09/19 01:07:41;;;;;;;2.25;1.20;;;14.30;99.90;;;;;;5068157;28;20100;-87
2023/09/19 01:10:10;;;;;;;2.88;1.17;;;14.30;99.90;;;;;;5063681;28;20524;-87
2023/09/19 01:13:11;;;;;;;4.50;1.40;;;14.30;99.90;;;;;;5074142;28;20051;-87
2023/09/19 01:15:42;;;;;;;3.20;1.10;;;14.30;99.90;;;;;;5066973;28;20397;-87
2023/09/19 01:18:08;;;;;;;2.38;1.20;;;14.30;99.90;;;;;;5083330;28;20032;-87
2023/09/19 01:20:53;;;;;;;4.38;1.40;;;14.30;99.90;;;;;;5048639;28;20461;-87
2023/09/19 01:23:51;;;;;;;2.17;1.10;;;14.30;99.90;;;;;;5044594;28;20048;-86
2023/09/19 01:26:55;;;;;;;3.35;1.40;;;14.30;99.90;;;;;;5068583;28;20048;-87
2023/09/19 01:29:39;;;;;;;1.80;1.10;;;14.30;99.90;;;;;;5067305;28;20051;-87
2023/09/19 01:32:06;;;;;;;2.90;1.38;;;14.20;99.90;;;;;;5064500;28;20048;-87
2023/09/19 01:34:50;;;;;;;2.20;1.15;;;14.20;99.90;;;;;;5053245;28;20120;-87
2023/09/19 01:37:19;;;;;;;3.08;1.20;;;14.20;99.90;;;;;;5062264;28;20040;-87
2023/09/19 01:39:52;;;;;;;3.50;1.38;;;14.20;99.90;;;;;;5057078;28;20040;-87
2023/09/19 01:42:30;;;;;;;3.38;1.52;;;14.20;99.90;;;;;;5071189;28;20071;-86
2023/09/19 01:45:08;;;;;;;3.58;1.17;;;14.20;99.90;;;;;;5073807;28;20044;-87
2023/09/19 01:47:44;;;;;;;2.92;1.30;;;14.20;99.90;;;;;;5056323;28;20036;-87
2023/09/19 01:50:28;;;;;;;3.45;1.20;;;14.10;99.90;;;;;;5063207;28;20054;-87
2023/09/19 01:53:04;;;;;;;3.90;1.27;;;14.10;99.90;;;;;;5064642;28;20119;-86
2023/09/19 01:55:33;;;;;;;3.38;1.27;;;14.10;99.90;;;;;;5054941;28;20044;-88
2023/09/19 01:58:19;;;;;;;1.55;1.13;;;14.10;99.90;;;;;;5083019;28;20032;-87
2023/09/19 02:00:48;;;;;;;2.50;1.17;;;14.00;99.90;;;;;;5067355;28;20047;-87
2023/09/19 02:03:15;;;;;;;3.53;1.40;;;14.00;99.90;;;;;;5068794;28;20508;-87
2023/09/19 02:05:41;;;;;;;3.10;1.35;;;13.90;99.90;;;;;;5068259;28;20047;-87
2023/09/19 02:08:07;;;;;;;1.90;1.05;;;13.90;99.90;;;;;;5062673;28;20040;-87
2023/09/19 02:10:34;;;;;;;2.90;1.10;;;13.90;99.90;;;;;;5068829;28;20517;-86
2023/09/19 02:13:00;;;;;;;2.97;1.23;;;13.90;99.90;;;;;;5069243;28;20036;-87
2023/09/19 02:15:25;;;;;;;2.97;1.40;;;13.90;99.90;;;;;;5085917;28;20043;-87
2023/09/19 02:17:51;;;;;;;3.90;1.50;;;13.80;99.90;;;;;;5088141;28;20040;-87
2023/09/19 02:20:19;;;;;;;1.50;1.10;;;13.90;99.90;;;;;;5061821;28;20508;-87
2023/09/19 02:22:45;;;;;;;2.25;1.20;;;13.80;99.90;;;;;;5068859;28;20048;-87
2023/09/19 02:25:11;;;;;;;3.00;1.20;;;13.80;99.90;;;;;;5045618;28;20046;-88
2023/09/19 02:27:37;;;;;;;3.13;1.30;;;13.80;99.90;;;;;;5079933;28;20036;-87
2023/09/19 02:30:04;;;;;;;3.05;1.25;;;13.70;99.90;;;;;;5047620;28;20052;-87
2023/09/19 02:32:31;;;;;;;2.00;1.10;;;13.70;99.90;;;;;;5072069;28;20110;-87
2023/09/19 02:35:00;;;;;;;3.55;1.15;;;13.70;99.90;;;;;;5058315;28;20052;-87
2023/09/19 02:37:26;;;;;;;2.50;1.20;;;13.70;99.90;;;;;;5064745;28;20055;-87
2023/09/19 02:39:52;;;;;;;1.33;1.05;;;13.70;99.90;;;;;;5049992;28;20048;-87
2023/09/19 02:42:17;;;;;;;3.00;1.20;;;13.70;99.90;;;;;;5067777;28;20036;-86
2023/09/19 02:44:46;;;;;;;2.90;1.10;;;13.60;99.90;;;;;;5063546;28;20048;-87
2023/09/19 02:47:12;;;;;;;2.65;1.25;;;13.60;99.90;;;;;;5069630;28;20048;-87
2023/09/19 02:49:38;;;;;;;3.15;1.20;;;13.60;99.90;;;;;;5052141;28;20040;-87
2023/09/19 02:52:04;;;;;;;3.40;1.30;;;13.60;99.90;;;;;;5064072;28;20110;-88
2023/09/19 02:54:30;;;;;;;2.45;1.25;;;13.60;99.90;;;;;;5064903;28;20036;-88
2023/09/19 02:56:55;;;;;;;4.53;1.38;;;13.60;99.90;;;;;;5064634;28;20059;-87
2023/09/19 02:59:21;;;;;;;3.58;1.33;;;13.60;99.90;;;;;;5062680;28;20384;-87
2023/09/19 03:01:48;;;;;;;2.30;1.20;;;13.60;99.90;;;;;;5079926;28;20591;-88
2023/09/19 03:04:19;;;;;;;4.72;1.52;;;13.60;99.90;;;;;;5040030;28;20044;-87
2023/09/19 03:06:45;;;;;;;4.30;1.52;;;13.60;99.90;;;;;;5064398;28;20043;-86
2023/09/19 03:09:11;;;;;;;5.82;1.45;;;13.50;99.90;;;;;;5039199;28;20046;-89
2023/09/19 03:11:39;;;;;;;4.05;1.33;;;13.60;99.90;;;;;;5066297;28;20431;-88
2023/09/19 03:14:05;;;;;;;3.38;1.40;;;13.50;99.90;;;;;;5059374;28;20044;-88
2023/09/19 03:16:31;;;;;;;4.47;1.38;;;13.50;99.90;;;;;;5053916;28;20409;-88
2023/09/19 03:18:59;;;;;;;3.25;1.27;;;13.50;99.90;;;;;;5061762;28;20044;-88
2023/09/19 03:21:25;;;;;;;5.35;1.52;;;13.50;99.90;;;;;;5058615;28;20494;-87
2023/09/19 03:23:51;;;;;;;4.45;1.75;;;13.50;99.90;;;;;;5045501;28;20048;-88
2023/09/19 03:26:17;;;;;;;5.55;1.60;;;13.50;99.90;;;;;;5067673;28;20056;-87
2023/09/19 03:28:43;;;;;;;5.68;1.48;;;13.50;99.90;;;;;;5061741;28;20409;-87
2023/09/19 03:31:10;;;;;;;5.65;1.73;;;13.50;99.90;;;;;;5079467;28;20117;-86
2023/09/19 03:33:36;;;;;;;3.53;1.45;;;13.50;99.90;;;;;;5060037;28;20121;-87
2023/09/19 03:36:05;;;;;;;4.30;1.25;;;13.50;99.90;;;;;;5065733;28;20032;-88
2023/09/19 03:38:32;;;;;;;3.78;1.50;;;13.50;99.90;;;;;;5079597;28;20185;-88
2023/09/19 03:40:58;;;;;;;6.05;1.52;;;13.50;99.90;;;;;;5066258;28;20088;-87
2023/09/19 03:43:25;;;;;;;4.20;1.60;;;;;;;;;;5061943;28;20054;-87
2023/09/19 03:45:54;;;;;;;3.40;1.30;;;13.50;99.90;;;;;;5070537;28;20051;-86
2023/09/19 03:48:21;;;;;;;5.32;1.40;;;13.50;99.90;;;;;;5063802;28;20039;-87
2023/09/19 03:50:47;;;;;;;3.78;1.50;;;13.50;99.90;;;;;;5066032;28;20048;-87
2023/09/19 03:53:13;;;;;;;6.47;1.73;;;13.50;99.90;;;;;;5065102;28;20186;-88
2023/09/19 03:55:39;;;;;;;5.20;1.60;;;13.50;99.90;;;;;;5041932;28;20182;-87
2023/09/19 03:58:05;;;;;;;5.43;1.95;;;13.50;99.90;;;;;;5035365;28;20036;-87
2023/09/19 04:00:31;;;;;;;4.55;1.60;;;13.50;99.90;;;;;;5043812;28;20048;-88
2023/09/19 04:02:56;;;;;;;45.35;42.10;;;13.50;99.90;;;;;;5066742;28;20036;-87
2023/09/19 04:05:23;;;;;;;4.80;1.70;;;13.50;99.90;;;;;;5062142;28;20048;-87
2023/09/19 04:07:50;;;;;;;4.47;1.85;;;13.50;99.90;;;;;;5055203;28;20079;-87
2023/09/19 04:10:16;;;;;;;4.60;1.58;;;13.50;99.90;;;;;;5035951;28;20056;-87
2023/09/19 04:12:53;;;;;;;4.07;1.48;;;13.50;99.90;;;;;;5053233;28;20160;-86
2023/09/19 04:15:23;;;;;;;4.70;1.50;;;13.60;99.90;;;;;;5057360;28;20086;-87
2023/09/19 04:17:50;;;;;;;4.03;1.50;;;13.60;99.90;;;;;;5059259;28;20509;-87
2023/09/19 04:20:20;;;;;;;7.13;1.80;;;13.70;99.90;;;;;;5053190;28;20051;-86
2023/09/19 04:22:46;;;;;;;5.78;1.88;;;13.70;99.90;;;;;;5059586;28;20260;-87
2023/09/19 04:25:12;;;;;;;5.07;1.77;;;13.70;99.90;;;;;;5056069;28;20041;-87
2023/09/19 04:27:38;;;;;;;5.40;1.60;;;13.70;99.90;;;;;;5057255;28;20036;-86
2023/09/19 04:30:10;;;;;;;4.13;1.50;;;13.70;99.90;;;;;;5035467;28;20118;-86
2023/09/19 04:32:38;;;;;;;4.28;1.60;;;13.70;99.90;;;;;;5063229;28;20036;-88
2023/09/19 04:35:06;;;;;;;7.45;2.22;;;13.70;99.90;;;;;;5063288;28;20048;-87
2023/09/19 04:37:32;;;;;;;7.72;1.92;;;13.70;99.90;;;;;;5051630;28;20041;-88
2023/09/19 04:39:58;;;;;;;8.35;1.88;;;13.70;99.90;;;;;;5061280;28;20485;-87
2023/09/19 04:42:25;;;;;;;5.07;1.60;;;13.80;99.90;;;;;;5058720;28;20036;-87
2023/09/19 04:44:54;;;;;;;5.03;1.60;;;13.70;99.90;;;;;;5056775;28;20049;-88
2023/09/19 04:47:22;;;;;;;5.78;1.67;;;13.80;99.90;;;;;;5042230;28;20509;-87
2023/09/19 04:49:47;;;;;;;6.05;1.70;;;13.80;99.90;;;;;;5052163;28;20231;-88
2023/09/19 04:52:15;;;;;;;5.95;1.77;;;13.80;99.90;;;;;;5046775;28;20044;-87
2023/09/19 04:54:41;;;;;;;7.32;1.90;;;13.80;99.90;;;;;;5061356;28;20036;-86
2023/09/19 04:57:07;;;;;;;6.90;2.00;;;13.70;99.90;;;;;;5035935;28;20469;-87
2023/09/19 04:59:32;;;;;;;8.05;1.77;;;13.70;99.90;;;;;;5069609;28;20040;-87
2023/09/19 05:01:59;;;;;;;4.78;1.60;;;13.70;99.90;;;;;;5023252;28;20044;-87
2023/09/19 05:04:24;;;;;;;8.35;1.70;;;14.90;99.90;;;;;;5034653;28;20044;-88
2023/09/19 05:06:50;;;;;;;5.90;1.70;;;13.80;99.90;;;;;;5061926;28;20101;-88
2023/09/19 05:09:19;;;;;;;6.32;1.52;;;13.80;99.90;;;;;;5057209;28;21529;-87
2023/09/19 05:11:46;;;;;;;6.47;1.60;;;13.80;99.90;;;;;;5031239;28;20040;-88
2023/09/19 05:14:12;;;;;;;5.38;1.80;;;13.80;99.90;;;;;;5031694;28;20052;-87
2023/09/19 05:16:37;;;;;;;7.82;1.92;;;13.80;99.90;;;;;;5039381;28;20043;-88
2023/09/19 05:19:03;;;;;;;5.30;1.60;;;13.80;99.90;;;;;;5053352;28;20055;-88
2023/09/19 05:21:30;;;;;;;6.28;1.80;;;13.80;99.90;;;;;;5052685;28;20052;-87
2023/09/19 05:23:56;;;;;;;7.32;1.92;;;13.80;99.90;;;;;;5055531;28;20078;-87
2023/09/19 05:26:22;;;;;;;7.35;1.98;;;13.80;99.90;;;;;;5065986;28;20120;-87
2023/09/19 05:28:48;;;;;;;6.75;1.60;;;13.80;99.90;;;;;;5045068;28;20933;-87
2023/09/19 05:31:15;;;;;;;6.65;1.70;;;13.90;99.90;;;;;;5058592;28;20040;-87
2023/09/19 05:33:44;;;;;;;6.57;1.70;;;13.90;99.90;;;;;;5056820;28;20049;-87
2023/09/19 05:36:11;;;;;;;4.75;1.55;;;13.90;99.90;;;;;;5047255;28;20033;-87
2023/09/19 05:38:40;;;;;;;7.07;1.98;;;13.90;99.90;;;;;;5060949;28;20116;-86
2023/09/19 05:41:06;;;;;;;8.10;2.22;;;13.90;99.90;;;;;;5071557;28;20056;-86
2023/09/19 05:43:32;;;;;;;7.22;1.67;;;13.90;99.90;;;;;;5078055;28;20401;-86
2023/09/19 05:46:00;;;;;;;12.82;10.60;;;13.90;99.90;;;;;;5053965;28;20051;-86
2023/09/19 05:48:25;;;;;;;6.68;1.92;;;13.90;99.90;;;;;;5071863;28;20043;-87
2023/09/19 05:50:51;;;;;;;6.20;1.95;;;13.90;99.90;;;;;;5053904;28;20430;-86
2023/09/19 05:53:18;;;;;;;7.35;1.65;;;13.90;99.90;;;;;;5050389;28;20088;-88
2023/09/19 05:55:44;;;;;;;7.22;1.95;;;13.90;99.90;;;;;;5062793;28;20268;-87
2023/09/19 05:58:10;;;;;;;6.13;1.85;;;13.90;99.90;;;;;;5068508;28;20572;-88
2023/09/19 06:00:36;;;;;;;7.45;1.77;;;13.90;99.90;;;;;;5069986;28;20178;-87
2023/09/19 06:03:02;;;;;;;6.32;1.60;;;13.90;99.90;;;;;;5070016;28;20505;-88
2023/09/19 06:05:30;;;;;;;5.40;1.67;;;14.00;99.90;;;;;;5070170;28;20056;-87
2023/09/19 06:07:59;;;;;;;6.38;2.03;;;14.00;99.90;;;;;;5070486;28;20056;-87
2023/09/19 06:10:27;;;;;;;7.65;1.95;;;14.00;99.90;;;;;;5069017;28;20053;-87
2023/09/19 06:12:54;;;;;;;6.07;1.88;;;14.50;99.90;;;;;;5070270;28;20041;-87
2023/09/19 06:15:23;;;;;;;8.00;1.90;;;14.10;99.90;;;;;;5050084;28;20060;-87
2023/09/19 06:17:49;;;;;;;8.10;1.95;;;14.10;99.90;;;;;;5049785;28;20110;-87
2023/09/19 06:20:16;;;;;;;6.78;1.70;;;14.10;99.90;;;;;;5061768;28;20052;-87
2023/09/19 06:22:43;;;;;;;6.97;1.85;;;14.10;99.90;;;;;;5049542;28;20067;-87
2023/09/19 06:25:19;;;;;;;6.70;1.65;;;14.20;99.90;;;;;;5069979;28;20049;-87
2023/09/19 06:27:45;;;;;;;6.90;1.77;;;14.20;99.90;;;;;;5069563;28;20048;-87
2023/09/19 06:30:12;;;;;;;7.70;2.30;;;14.20;99.90;;;;;;5065613;28;20047;-86
2023/09/19 06:32:38;;;;;;;6.40;1.70;;;14.20;99.90;;;;;;5049679;28;20083;-87
2023/09/19 06:35:07;;;;;;;7.45;1.90;;;14.30;99.90;;;;;;5067850;28;20094;-86
2023/09/19 06:37:34;;;;;;;7.78;1.80;;;14.30;99.90;;;;;;5067575;28;20194;-86
2023/09/19 06:40:00;;;;;;;8.13;2.08;;;14.40;99.90;;;;;;5069689;28;20498;-86
2023/09/19 06:42:28;;;;;;;7.03;1.63;;;14.40;99.90;;;;;;5067680;28;20086;-87
2023/09/19 06:44:53;;;;;;;6.07;1.83;;;14.40;99.90;;;;;;5069456;28;20541;-88
2023/09/19 06:47:20;;;;;;;7.30;1.67;;;14.40;99.90;;;;;;5069320;28;20035;-86
2023/09/19 06:49:45;;;;;;;7.65;1.83;;;14.50;99.90;;;;;;5071156;28;20382;-87
2023/09/19 06:52:11;;;;;;;6.82;1.80;;;14.50;99.90;;;;;;5067380;28;20078;-87
2023/09/19 06:54:37;;;;;;;8.15;2.13;;;14.50;99.90;;;;;;5090968;28;20047;-87
2023/09/19 06:57:03;;;;;;;6.43;1.98;;;14.50;99.90;;;;;;5068958;28;20611;-86
2023/09/19 06:59:29;;;;;;;9.10;2.20;;;14.60;99.90;;;;;;5052155;28;20045;-86
2023/09/19 07:01:54;;;;;;;7.60;2.05;;;14.60;99.90;;;;;;5070249;28;20114;-87
2023/09/19 07:04:20;;;;;;;8.25;1.92;;;14.60;99.90;;;;;;5050480;28;20634;-88
2023/09/19 07:06:50;;;;;;;6.88;1.70;;;14.70;99.90;;;;;;5046984;28;20051;-87
2023/09/19 07:09:16;;;;;;;7.18;1.77;;;14.70;99.90;;;;;;5072457;28;20047;-87
2023/09/19 07:11:43;;;;;;;8.00;2.08;;;14.80;99.90;;;;;;5072509;28;20516;-87
2023/09/19 07:14:11;;;;;;;7.35;2.00;;;14.80;99.90;;;;;;5069921;28;20505;-88
2023/09/19 07:16:39;;;;;;;6.93;1.90;;;14.90;99.90;;;;;;5090796;28;20111;-88
2023/09/19 07:19:05;;;;;;;6.88;1.85;;;14.90;99.90;;;;;;5082493;28;20405;-88
2023/09/19 07:21:32;;;;;;;9.85;2.10;;;14.90;99.90;;;;;;5046415;28;20050;-87
2023/09/19 07:24:00;;;;;;;7.72;1.80;;;15.00;99.90;;;;;;5070454;28;20318;-87
2023/09/19 07:26:27;;;;;;;8.48;2.05;;;15.10;99.90;;;;;;5072575;28;20411;-87
2023/09/19 07:28:54;;;;;;;6.45;1.63;;;15.10;99.90;;;;;;5071906;28;20044;-88
2023/09/19 07:31:20;;;;;;;7.85;1.90;;;15.10;99.90;;;;;;5071879;28;20064;-87
2023/09/19 07:33:45;;;;;;;7.22;1.92;;;15.10;99.90;;;;;;5070906;28;20036;-88
2023/09/19 07:36:15;;;;;;;5.53;1.70;;;15.20;99.90;;;;;;5068740;28;20044;-88
2023/09/19 07:38:42;;;;;;;6.88;1.85;;;15.20;99.90;;;;;;5067526;28;20044;-87
2023/09/19 07:41:09;;;;;;;10.25;2.17;;;15.20;99.90;;;;;;5068270;28;20041;-86
2023/09/19 07:43:35;;;;;;;7.93;2.15;;;15.20;99.90;;;;;;5065380;28;20047;-89
2023/09/19 07:46:11;;;;;;;5.95;1.63;;;15.20;99.90;;;;;;5059653;28;20075;-86
2023/09/19 07:48:38;;;;;;;7.80;2.10;;;15.20;99.90;;;;;;5070601;28;20419;-86
2023/09/19 07:51:08;;;;;;;9.50;2.05;;;15.40;99.90;;;;;;5089683;28;20152;-88
2023/09/19 07:53:37;;;;;;;8.18;1.95;;;15.30;99.90;;;;;;5089854;28;20500;-87
2023/09/19 07:56:07;;;;;;;7.32;1.65;;;15.40;99.90;;;;;;5067386;28;20048;-87
2023/09/19 07:58:34;;;;;;;8.50;2.17;;;15.40;99.90;;;;;;5067543;28;20131;-88
2023/09/19 08:01:09;;;;;;;8.18;1.98;;;15.50;99.90;;;;;;5071925;28;20054;-89
2023/09/19 08:03:40;;;;;;;7.03;2.15;;;15.50;99.90;;;;;;5071512;28;20087;-87
2023/09/19 08:06:06;;;;;;;7.55;1.98;;;15.50;99.90;;;;;;5069982;28;20048;-87
2023/09/19 08:08:37;;;;;;;8.90;2.22;;;15.50;99.90;;;;;;5070382;28;20282;-87
2023/09/19 08:11:11;;;;;;;6.95;1.73;;;15.40;99.90;;;;;;5089469;28;20063;-87
2023/09/19 08:13:43;;;;;;;7.22;1.98;;;15.50;99.90;;;;;;5071304;28;20071;-88
2023/09/19 08:16:12;;;;;;;9.27;2.10;;;15.50;99.90;;;;;;5078401;28;20075;-87
2023/09/19 08:18:40;;;;;;;7.05;2.22;;;15.60;99.90;;;;;;5049042;28;20055;-88
2023/09/19 08:21:10;;;;;;;7.75;1.95;;;15.60;99.90;;;;;;5080117;28;20319;-87
2023/09/19 08:23:38;;;;;;;6.80;1.85;;;15.70;99.90;;;;;;5071203;28;20056;-87
2023/09/19 08:26:07;;;;;;;8.23;2.10;;;15.70;99.90;;;;;;5034263;28;20513;-87
2023/09/19 08:28:33;;;;;;;5.47;1.83;;;15.80;99.90;;;;;;5035341;28;20052;-88
2023/09/19 08:31:06;;;;;;;10.55;2.30;;;16.00;99.90;;;;;;5071239;28;20048;-87
2023/09/19 08:33:33;;;;;;;6.68;2.10;;;16.10;99.90;;;;;;5054365;28;20044;-88
2023/09/19 08:36:00;;;;;;;9.73;2.03;;;16.20;99.90;;;;;;5071206;28;20048;-87
2023/09/19 08:38:29;;;;;;;7.55;1.90;;;16.20;99.90;;;;;;5072860;28;20570;-86
2023/09/19 08:40:59;;;;;;;5.38;1.77;;;16.30;99.90;;;;;;5051089;28;20123;-87
2023/09/19 08:43:26;;;;;;;7.50;1.67;;;16.30;99.90;;;;;;5051628;28;20243;-87
2023/09/19 08:46:04;;;;;;;7.15;1.60;;;16.30;99.90;;;;;;5071088;28;20058;-86
2023/09/19 08:48:31;;;;;;;7.93;2.03;;;16.30;99.90;;;;;;5069736;28;20446;-87
2023/09/19 08:51:03;;;;;;;7.05;1.80;;;16.30;99.90;;;;;;5067411;28;20110;-87
2023/09/19 08:53:51;;;;;;;7.67;2.37;;;16.30;99.90;;;;;;5051266;28;20126;-86
2023/09/19 08:56:18;;;;;;;5.95;1.77;;;16.30;99.90;;;;;;5064603;28;20455;-87
2023/09/19 08:58:59;;;;;;;8.25;2.33;;;16.30;99.90;;;;;;5040813;28;20044;-88
2023/09/19 09:01:29;;;;;;;5.72;1.83;;;16.30;99.90;;;;;;5059730;28;20048;-87
2023/09/19 09:03:56;;;;;;;7.15;1.70;;;16.40;99.90;;;;;;5069809;28;20051;-88
2023/09/19 09:06:23;;;;;;;6.75;1.73;;;16.40;99.90;;;;;;5053208;28;20439;-87
2023/09/19 09:08:53;;;;;;;5.18;1.70;;;16.30;99.90;;;;;;5039243;28;20060;-87
2023/09/19 09:11:19;;;;;;;5.57;1.67;;;16.30;99.90;;;;;;5045036;28;20426;-88
2023/09/19 09:13:45;;;;;;;5.82;1.75;;;16.40;99.90;;;;;;5059596;28;20047;-87
2023/09/19 09:16:12;;;;;;;8.10;2.03;;;16.50;99.90;;;;;;5072816;28;20044;-87
2023/09/19 09:18:38;;;;;;;9.32;2.13;;;16.50;99.90;;;;;;5071539;28;20049;-87
2023/09/19 09:21:04;;;;;;;5.93;1.98;;;16.50;99.90;;;;;;5070520;28;20055;-87
2023/09/19 09:23:32;;;;;;;5.60;1.90;;;16.40;99.90;;;;;;5087934;28;20041;-88
2023/09/19 09:26:06;;;;;;;7.05;2.47;;;16.40;99.90;;;;;;5047676;28;20151;-88
2023/09/19 09:28:33;;;;;;;7.32;2.13;;;16.40;99.90;;;;;;5061156;28;20079;-87
2023/09/19 09:31:07;;;;;;;8.32;2.13;;;16.50;99.90;;;;;;5052034;28;20040;-87
2023/09/19 09:33:34;;;;;;;5.80;2.00;;;16.50;99.90;;;;;;5061871;28;20039;-87
2023/09/19 09:36:02;;;;;;;7.85;2.38;;;16.60;99.90;;;;;;5071038;28;20523;-88
2023/09/19 09:38:32;;;;;;;8.25;2.35;;;16.60;99.90;;;;;;5074128;28;20052;-87
2023/09/19 09:41:06;;;;;;;8.10;2.20;;;16.70;99.90;;;;;;5088797;28;20384;-88
2023/09/19 09:43:39;;;;;;;7.07;2.13;;;16.90;99.90;;;;;;5081058;28;20037;-90
2023/09/19 09:52:23;;;;;;;7.80;2.38;;;17.60;99.90;;;;;;5074601;28;20811;-87
2023/09/19 09:55:08;;;;;;;6.75;2.00;;;17.70;99.90;;;;;;5056410;28;20461;-88
2023/09/19 09:57:34;;;;;;;7.53;2.22;;;17.70;99.90;;;;;;5053067;28;20076;-87
2023/09/19 10:00:16;;;;;;;7.68;2.03;;;17.70;99.90;;;;;;5090397;28;20059;-89
2023/09/19 10:02:45;;;;;;;7.35;2.30;;;17.70;99.90;;;;;;5074030;28;20113;-86
2023/09/19 10:07:50;;;;;;;7.13;1.98;;;17.70;99.90;;;;;;5071237;28;20497;-88
2023/09/19 10:13:12;;;;;;;7.30;2.10;;;17.80;99.90;;;;;;5073610;28;20386;-88
2023/09/19 10:15:38;;;;;;;5.88;1.70;;;17.90;99.90;;;;;;5073494;28;20488;-88
2023/09/19 10:18:10;;;;;;;10.07;2.22;;;17.90;99.90;;;;;;5033657;28;20047;-87
2023/09/19 10:20:41;;;;;;;7.45;2.00;;;18.00;99.90;;;;;;5055921;28;20046;-87
2023/09/19 10:23:12;;;;;;;8.45;2.05;;;18.10;99.90;;;;;;5053437;28;20115;-88
2023/09/19 10:25:39;;;;;;;7.40;2.20;;;18.20;99.90;;;;;;5066825;28;20063;-88
2023/09/19 10:28:15;;;;;;;7.03;2.25;;;18.10;99.90;;;;;;5087161;28;20075;-88
2023/09/19 10:30:47;;;;;;;6.88;1.92;;;18.20;99.90;;;;;;5064814;28;20044;-88
2023/09/19 10:33:19;;;;;;;8.40;2.25;;;18.20;99.90;;;;;;5073077;28;20048;-88
2023/09/19 10:35:47;;;;;;;8.63;2.30;;;18.30;99.90;;;;;;5054937;28;20036;-88
2023/09/19 10:38:18;;;;;;;7.20;2.08;;;18.40;99.90;;;;;;5073048;28;20111;-87
2023/09/19 10:40:47;;;;;;;7.35;2.00;;;18.30;99.90;;;;;;5071660;28;20459;-87
2023/09/19 10:43:18;;;;;;;9.27;2.20;;;18.30;99.90;;;;;;5091290;28;20047;-87
2023/09/19 10:45:49;;;;;;;8.80;2.28;;;18.40;99.90;;;;;;5070488;28;20044;-88
2023/09/19 10:48:18;;;;;;;8.02;2.20;;;18.50;99.90;;;;;;5042107;28;20074;-89
2023/09/19 10:51:13;;;;;;;6.43;1.77;;;18.50;99.90;;;;;;5046690;28;20110;-86
2023/09/19 10:54:26;;;;;;;5.93;2.25;;;18.60;99.90;;;;;;5050347;28;20051;-87
2023/09/19 10:56:53;;;;;;;7.15;1.95;;;18.50;99.90;;;;;;5037890;28;20045;-87
2023/09/19 10:59:21;;;;;;;6.90;2.20;;;18.40;99.90;;;;;;5081575;28;20118;-87
2023/09/19 11:01:52;;;;;;;10.10;2.40;;;18.40;99.90;;;;;;5044714;28;20040;-88
2023/09/19 11:04:32;;;;;;;7.45;2.30;;;18.50;99.90;;;;;;5064881;28;20102;-87
2023/09/19 11:07:16;;;;;;;7.68;1.90;;;18.40;99.90;;;;;;5060219;28;20048;-88
2023/09/19 11:09:48;;;;;;;9.38;2.50;;;18.40;99.90;;;;;;5069163;28;20040;-87
2023/09/19 11:12:46;;;;;;;6.53;2.22;;;18.40;99.90;;;;;;5068632;28;20055;-86
2023/09/19 11:15:51;;;;;;;6.82;1.92;;;18.40;99.90;;;;;;5035563;28;20052;-86
2023/09/19 11:18:53;;;;;;;7.07;2.05;;;18.40;99.90;;;;;;5069754;28;20127;-87
2023/09/19 11:21:31;;;;;;;9.90;2.17;;;18.30;99.90;;;;;;5033605;28;20049;-87
2023/09/19 11:24:24;;;;;;;9.27;2.35;;;18.30;99.90;;;;;;5065011;28;20118;-87
2023/09/19 11:26:52;;;;;;;7.63;2.10;;;18.30;99.90;;;;;;5067024;28;20124;-89
2023/09/19 11:29:29;;;;;;;7.22;2.00;;;18.30;99.90;;;;;;5048883;28;20060;-87
2023/09/19 11:31:59;;;;;;;5.55;1.90;;;18.30;99.90;;;;;;5063730;28;20050;-86
2023/09/19 11:34:38;;;;;;;5.57;1.85;;;18.30;99.90;;;;;;5051587;28;20052;-86
2023/09/19 11:37:33;;;;;;;5.43;1.98;;;18.20;99.90;;;;;;5056721;28;20040;-87
2023/09/19 11:40:16;;;;;;;8.30;2.28;;;18.10;99.90;;;;;;5051253;28;20045;-87
2023/09/19 11:42:45;;;;;;;6.88;1.90;;;18.10;99.90;;;;;;5057241;28;20036;-87
2023/09/19 11:45:39;;;;;;;7.43;1.90;;;18.20;99.90;;;;;;5069696;28;20396;-87
2023/09/19 11:48:07;;;;;;;8.57;1.98;;;18.20;99.90;;;;;;5068774;28;20109;-89
2023/09/19 11:50:36;;;;;;;7.97;2.25;;;18.10;99.90;;;;;;5068032;28;20068;-86
2023/09/19 11:53:02;;;;;;;7.25;2.05;;;18.20;99.90;;;;;;5044926;28;20053;-88
2023/09/19 11:55:32;;;;;;;7.32;2.35;;;18.20;99.90;;;;;;5048497;28;20457;-88
2023/09/19 11:57:59;;;;;;;5.70;1.65;;;18.20;99.90;;;;;;5059322;28;20455;-87
2023/09/19 12:00:27;;;;;;;8.40;2.00;;;18.20;99.90;;;;;;5068112;28;20048;-87
2023/09/19 12:03:00;;;;;;;7.03;2.15;;;18.20;99.90;;;;;;5049124;28;20133;-88
2023/09/19 12:05:31;;;;;;;6.30;1.80;;;18.20;99.90;;;;;;5051742;28;20302;-87
2023/09/19 12:07:57;;;;;;;8.07;1.88;;;18.20;99.90;;;;;;5068064;28;20056;-88
2023/09/19 12:10:23;;;;;;;7.78;2.50;;;18.10;99.90;;;;;;5067914;28;20040;-88
2023/09/19 12:12:49;;;;;;;8.02;2.33;;;18.10;99.90;;;;;;5030300;28;20052;-87
2023/09/19 12:15:22;;;;;;;6.35;1.65;;;18.10;99.90;;;;;;5064473;28;20051;-86
2023/09/19 12:17:48;;;;;;;;;;;18.10;99.90;;;;;;5048182;28;20112;-88
2023/09/19 12:20:15;;;;;;;9.00;2.33;;;18.10;99.90;;;;;;5050988;28;19920;-88
2023/09/19 12:22:46;;;;;;;8.00;2.13;;;18.10;99.90;;;;;;5069334;28;20033;-88
2023/09/19 12:25:13;;;;;;;9.45;2.30;;;18.10;99.90;;;;;;5046164;28;20065;-88
2023/09/19 12:27:56;;;;;;;7.50;2.00;;;18.20;99.90;;;;;;5042054;28;20044;-86
2023/09/19 12:30:27;;;;;;;;;;;18.20;99.90;;;;;;5051499;28;20640;-89
2023/09/19 12:32:52;;;;;;;6.55;1.90;;;18.10;99.90;;;;;;5064228;28;19948;-87
2023/09/19 12:35:30;;;;;;;8.25;2.40;;;18.10;99.90;;;;;;5066583;28;20068;-87
2023/09/19 12:37:56;;;;;;;8.57;1.90;;;18.10;99.90;;;;;;5051464;28;20071;-86
2023/09/19 12:40:27;;;;;;;7.68;2.00;;;18.00;99.90;;;;;;5054430;28;20051;-88
2023/09/19 12:43:02;;;;;;;8.50;2.20;;;18.00;99.90;;;;;;5069071;28;20044;-88
2023/09/19 12:45:30;;;;;;;9.93;2.28;;;17.90;99.90;;;;;;5063456;28;20040;-86
2023/09/19 12:48:22;;;;;;;7.15;1.98;;;17.90;99.90;;;;;;5043325;28;20506;-87
2023/09/19 12:51:05;;;;;;;8.15;2.00;;;18.00;99.90;;;;;;5069082;28;20052;-87
2023/09/19 12:53:56;;;;;;;6.80;2.10;;;18.00;99.90;;;;;;5072002;28;20037;-87
2023/09/19 12:56:23;;;;;;;6.40;1.90;;;18.10;99.90;;;;;;5049494;28;20565;-87
2023/09/19 12:59:00;;;;;;;7.25;1.85;;;18.10;99.90;;;;;;5071739;28;20091;-87
2023/09/19 13:01:29;;;;;;;7.78;1.98;;;18.10;99.90;;;;;;5071554;28;20052;-87
2023/09/19 13:04:19;;;;;;;7.25;1.77;;;18.20;99.90;;;;;;5054997;28;20113;-86
2023/09/19 13:06:52;;;;;;;6.68;2.00;;;18.20;99.90;;;;;;5071355;28;20068;-88
2023/09/19 13:09:22;;;;;;;6.40;1.83;;;18.10;99.90;;;;;;5071018;28;20083;-88
2023/09/19 13:11:49;;;;;;;5.68;1.90;;;18.10;99.90;;;;;;5071260;28;20045;-91
2023/09/19 13:14:24;;;;;;;7.45;2.10;;;18.10;99.90;;;;;;5051649;28;20055;-88